createdAt,value
2022-10-19T00:01:23.285Z,75.86
2022-10-19T00:05:12.787Z,75.70
2022-10-19T00:08:38.366Z,75.71
2022-10-19T00:12:16.117Z,75.63
2022-10-19T00:15:53.221Z,75.81
2022-10-19T00:19:31.200Z,75.80
2022-10-19T00:23:08.953Z,75.83
2022-10-19T00:26:46.529Z,75.77
2022-10-19T00:30:24.182Z,75.76
2022-10-19T00:34:01.916Z,75.94
2022-10-19T00:37:39.428Z,75.97
2022-10-19T00:41:18.993Z,76.00
2022-10-19T00:45:00.293Z,75.89
2022-10-19T00:48:37.973Z,75.83
2022-10-19T00:52:20.019Z,75.79
2022-10-19T00:55:59.237Z,75.82
2022-10-19T00:59:38.796Z,75.93
2022-10-19T01:03:16.487Z,76.03
2022-10-19T01:06:54.733Z,75.97
2022-10-19T01:11:07.851Z,75.86
2022-10-19T01:14:59.829Z,75.78
2022-10-19T01:19:06.037Z,75.82
2022-10-19T01:23:10.704Z,75.86
2022-10-19T01:27:31.478Z,75.87
2022-10-19T01:31:19.291Z,75.92
2022-10-19T01:35:03.635Z,76.14
2022-10-19T01:38:54.710Z,76.13
2022-10-19T01:42:43.779Z,76.13
2022-10-19T01:46:28.867Z,76.03
2022-10-19T01:50:18.880Z,75.88
2022-10-19T01:53:59.917Z,76.24
2022-10-19T01:57:48.265Z,76.01
2022-10-19T02:01:29.510Z,76.17
2022-10-19T02:05:08.729Z,76.28
2022-10-19T02:08:49.148Z,76.47
2022-10-19T02:12:29.418Z,76.01
2022-10-19T02:16:14.059Z,76.15
2022-10-19T02:19:51.495Z,76.24
2022-10-19T02:23:49.432Z,76.24
2022-10-19T02:27:09.083Z,76.49
2022-10-19T02:30:46.216Z,76.41
2022-10-19T02:34:24.436Z,76.55
2022-10-19T02:38:05.001Z,76.57
2022-10-19T02:41:49.897Z,76.57
2022-10-19T02:45:30.226Z,76.49
2022-10-19T02:49:09.875Z,76.39
2022-10-19T02:52:47.063Z,76.62
2022-10-19T02:56:25.199Z,76.73
2022-10-19T03:00:03.916Z,76.79
2022-10-19T03:03:41.298Z,76.92
2022-10-19T03:07:20.297Z,76.76
2022-10-19T03:11:01.076Z,76.82
2022-10-19T03:14:57.396Z,76.79
2022-10-19T03:18:17.706Z,76.77
2022-10-19T03:21:54.970Z,76.64
2022-10-19T03:25:32.776Z,76.67
2022-10-19T03:29:09.972Z,76.69
2022-10-19T03:32:48.054Z,76.85
2022-10-19T03:36:31.198Z,76.86
2022-10-19T03:40:09.338Z,76.67
2022-10-19T03:43:47.259Z,76.58
2022-10-19T03:47:24.316Z,76.51
2022-10-19T03:51:03.378Z,76.65
2022-10-19T03:54:40.900Z,76.59
2022-10-19T03:58:18.419Z,76.98
2022-10-19T04:01:56.081Z,77.04
2022-10-19T04:05:33.705Z,76.98
2022-10-19T04:09:16.119Z,77.06
2022-10-19T04:12:53.994Z,77.08
2022-10-19T04:16:33.103Z,77.11
2022-10-19T04:20:10.718Z,77.03
2022-10-19T04:23:48.680Z,77.19
2022-10-19T04:27:25.712Z,77.15
2022-10-19T04:31:05.470Z,77.17
2022-10-19T04:34:42.561Z,77.07
2022-10-19T04:38:20.294Z,77.08
2022-10-19T04:41:57.989Z,77.07
2022-10-19T04:45:36.233Z,76.99
2022-10-19T04:49:16.416Z,77.19
2022-10-19T04:52:56.788Z,77.11
2022-10-19T04:56:34.045Z,77.02
2022-10-19T05:00:12.733Z,77.03
2022-10-19T05:07:37.880Z,77.25
2022-10-19T05:11:15.711Z,77.14
2022-10-19T05:14:52.827Z,76.96
2022-10-19T05:18:33.903Z,76.96
2022-10-19T05:22:12.953Z,77.00
2022-10-19T05:25:50.429Z,77.09
2022-10-19T05:29:28.736Z,77.02
2022-10-19T05:33:05.952Z,76.91
2022-10-19T05:37:02.669Z,76.85
2022-10-19T05:40:21.531Z,76.86
2022-10-19T05:44:00.317Z,76.87
2022-10-19T05:47:58.643Z,76.88
2022-10-19T05:51:18.484Z,76.88
2022-10-19T05:54:56.725Z,76.82
2022-10-19T05:58:34.096Z,76.65
2022-10-19T06:02:14.560Z,76.64
2022-10-19T06:05:52.630Z,76.95
2022-10-19T06:09:35.390Z,76.63
2022-10-19T06:13:15.661Z,76.49
2022-10-19T06:17:11.654Z,76.49
2022-10-19T06:20:43.777Z,76.48
2022-10-19T06:24:23.157Z,76.38
2022-10-19T06:28:02.520Z,76.33
2022-10-19T06:31:39.925Z,76.21
2022-10-19T06:35:18.134Z,76.21
2022-10-19T06:38:57.184Z,76.28
2022-10-19T06:42:34.418Z,75.89
2022-10-19T06:46:17.674Z,75.90
2022-10-19T06:49:54.583Z,76.18
2022-10-19T06:53:34.706Z,76.01
2022-10-19T06:57:12.327Z,75.70
2022-10-19T07:00:59.088Z,75.67
2022-10-19T07:04:35.890Z,75.61
2022-10-19T07:08:14.196Z,75.09
2022-10-19T07:11:52.680Z,75.51
2022-10-19T07:15:32.494Z,75.45
2022-10-19T07:19:09.133Z,75.43
2022-10-19T07:22:47.277Z,75.22
2022-10-19T07:26:28.389Z,75.18
2022-10-19T07:30:05.930Z,75.16
2022-10-19T07:33:43.989Z,75.14
2022-10-19T07:37:21.111Z,74.70
2022-10-19T07:41:13.772Z,74.78
2022-10-19T07:44:51.757Z,74.69
2022-10-19T07:48:31.757Z,74.39
2022-10-19T07:52:16.269Z,74.32
2022-10-19T07:55:56.345Z,74.47
2022-10-19T07:59:39.786Z,74.29
2022-10-19T08:07:36.192Z,73.46
2022-10-19T08:10:54.296Z,73.78
2022-10-19T08:14:34.061Z,73.61
2022-10-19T08:18:19.559Z,73.93
2022-10-19T08:21:49.127Z,73.22
2022-10-19T08:25:34.439Z,73.12
2022-10-19T08:29:06.769Z,73.46
2022-10-19T08:33:05.216Z,73.18
2022-10-19T08:36:24.735Z,72.93
2022-10-19T08:40:02.324Z,72.40
2022-10-19T08:43:54.181Z,72.77
2022-10-19T08:47:39.054Z,72.73
2022-10-19T08:51:37.281Z,72.24
2022-10-19T08:55:01.459Z,72.12
2022-10-19T08:59:01.416Z,72.15
2022-10-19T09:02:49.785Z,71.97
2022-10-19T09:06:32.609Z,70.25
2022-10-19T09:10:15.233Z,71.09
2022-10-19T09:14:16.528Z,71.11
2022-10-19T09:17:49.567Z,70.11
2022-10-19T09:21:15.996Z,70.53
2022-10-19T09:24:58.781Z,70.46
2022-10-19T09:28:43.351Z,70.53
2022-10-19T09:32:26.352Z,70.61
2022-10-19T09:36:08.022Z,70.21
2022-10-19T09:40:07.160Z,69.46
2022-10-19T09:43:23.217Z,70.39
2022-10-19T09:47:20.921Z,70.52
2022-10-19T09:51:10.796Z,70.27
2022-10-19T09:54:59.322Z,68.93
2022-10-19T09:58:36.919Z,68.43
2022-10-19T10:02:36.760Z,67.36
2022-10-19T10:05:52.864Z,67.71
2022-10-19T10:09:30.904Z,68.28
2022-10-19T10:13:19.088Z,67.49
2022-10-19T10:17:22.321Z,67.84
2022-10-19T10:20:34.675Z,67.65
2022-10-19T10:24:11.671Z,67.44
2022-10-19T10:28:01.992Z,67.27
2022-10-19T10:31:38.970Z,66.79
2022-10-19T10:35:30.531Z,67.09
2022-10-19T10:39:17.699Z,67.24
2022-10-19T10:42:58.958Z,66.45
2022-10-19T10:46:52.063Z,66.39
2022-10-19T10:50:36.325Z,66.40
2022-10-19T10:54:24.452Z,65.99
2022-10-19T10:57:54.787Z,65.49
2022-10-19T11:01:43.145Z,65.52
2022-10-19T11:05:45.129Z,65.05
2022-10-19T11:09:31.882Z,64.72
2022-10-19T11:13:18.840Z,64.66
2022-10-19T11:17:27.936Z,64.57
2022-10-19T11:20:39.702Z,63.94
2022-10-19T11:24:47.840Z,64.45
2022-10-19T11:28:30.663Z,63.99
2022-10-19T11:32:51.090Z,63.99
2022-10-19T11:35:53.441Z,63.81
2022-10-19T11:39:58.522Z,63.67
2022-10-19T11:43:53.597Z,63.91
2022-10-19T11:48:33.198Z,63.02
2022-10-19T11:51:46.288Z,63.75
2022-10-19T11:55:17.611Z,63.85
2022-10-19T11:59:02.582Z,63.54
2022-10-19T12:03:13.640Z,63.18
2022-10-19T12:07:23.446Z,63.76
2022-10-19T12:11:34.118Z,63.81
2022-10-19T12:15:24.104Z,63.71
2022-10-19T12:19:25.208Z,63.81
2022-10-19T12:23:01.847Z,63.54
2022-10-19T12:30:18.564Z,63.62
2022-10-19T12:33:52.312Z,63.83
2022-10-19T12:37:45.009Z,63.78
2022-10-19T12:42:04.464Z,63.50
2022-10-19T12:46:08.113Z,63.56
2022-10-19T12:49:56.229Z,63.63
2022-10-19T12:53:41.220Z,63.86
2022-10-19T12:57:39.773Z,63.65
2022-10-19T13:01:21.534Z,63.42
2022-10-19T13:04:36.697Z,62.96
2022-10-19T13:08:28.111Z,63.12
2022-10-19T13:12:19.450Z,63.38
2022-10-19T13:15:59.446Z,63.13
2022-10-19T13:19:39.905Z,63.06
2022-10-19T13:23:29.629Z,63.31
2022-10-19T13:27:06.698Z,62.98
2022-10-19T13:30:46.909Z,62.97
2022-10-19T13:34:25.693Z,62.81
2022-10-19T13:38:12.651Z,62.87
2022-10-19T13:41:52.599Z,62.90
2022-10-19T13:46:14.963Z,63.01
2022-10-19T13:50:00.025Z,63.26
2022-10-19T13:53:09.826Z,63.02
2022-10-19T13:56:51.273Z,63.09
2022-10-19T14:00:59.263Z,63.21
2022-10-19T14:05:16.323Z,63.15
2022-10-19T14:09:29.944Z,63.18
2022-10-19T14:13:26.011Z,62.94
2022-10-19T14:16:58.368Z,63.22
2022-10-19T14:21:03.899Z,63.17
2022-10-19T14:24:35.307Z,62.94
2022-10-19T14:28:34.609Z,62.98
2022-10-19T14:31:49.977Z,63.05
2022-10-19T14:35:40.138Z,62.93
2022-10-19T14:39:33.336Z,62.84
2022-10-19T14:43:21.425Z,62.68
2022-10-19T14:47:02.302Z,62.70
2022-10-19T14:50:46.780Z,62.79
2022-10-19T14:54:47.753Z,62.85
2022-10-19T14:58:02.933Z,62.85
2022-10-19T15:01:50.054Z,62.93
2022-10-19T15:05:35.975Z,63.00
2022-10-19T15:09:47.402Z,62.96
2022-10-19T15:13:29.117Z,62.85
2022-10-19T15:17:34.150Z,62.98
2022-10-19T15:21:33.397Z,63.02
2022-10-19T15:25:07.000Z,63.04
2022-10-19T15:28:44.234Z,63.02
2022-10-19T15:32:25.112Z,63.17
2022-10-19T15:36:20.206Z,63.14
2022-10-19T15:39:58.879Z,63.21
2022-10-19T15:43:43.787Z,63.26
2022-10-19T15:47:24.444Z,63.21
2022-10-19T15:51:01.386Z,63.18
2022-10-19T15:54:38.889Z,63.39
2022-10-19T15:58:18.597Z,63.44
2022-10-19T16:01:56.338Z,63.28
2022-10-19T16:05:36.455Z,63.53
2022-10-19T16:09:22.085Z,63.47
2022-10-19T16:12:59.141Z,63.53
2022-10-19T16:16:38.576Z,63.41
2022-10-19T16:20:18.495Z,63.66
2022-10-19T16:24:14.596Z,63.74
2022-10-19T16:27:34.071Z,63.66
2022-10-19T16:31:11.521Z,63.87
2022-10-19T16:34:49.045Z,63.66
2022-10-19T16:38:30.081Z,63.76
2022-10-19T16:42:07.438Z,63.67
2022-10-19T16:45:46.834Z,63.71
2022-10-19T16:49:23.553Z,63.71
2022-10-19T16:53:07.209Z,63.80
2022-10-19T16:56:48.097Z,64.04
2022-10-19T17:00:25.201Z,64.30
2022-10-19T17:04:24.344Z,64.33
2022-10-19T17:09:02.686Z,64.43
2022-10-19T17:12:18.490Z,64.26
2022-10-19T17:15:53.591Z,64.26
2022-10-19T17:19:27.622Z,64.33
2022-10-19T17:23:18.818Z,64.46
2022-10-19T17:26:58.886Z,64.65
2022-10-19T17:30:33.089Z,64.49
2022-10-19T17:34:02.341Z,64.64
2022-10-19T17:38:15.267Z,64.93
2022-10-19T17:41:32.589Z,64.96
2022-10-19T17:45:11.469Z,65.14
2022-10-19T17:48:51.453Z,65.27
2022-10-19T17:52:28.823Z,65.36
2022-10-19T17:56:09.033Z,65.52
2022-10-19T17:59:52.459Z,65.76
2022-10-19T18:03:32.983Z,65.71
2022-10-19T18:07:10.379Z,65.62
2022-10-19T18:10:49.342Z,65.61
2022-10-19T18:14:29.619Z,65.77
2022-10-19T18:18:08.903Z,65.91
2022-10-19T18:21:48.114Z,65.83
2022-10-19T18:25:36.141Z,66.05
2022-10-19T18:29:26.136Z,66.13
2022-10-19T18:33:03.772Z,66.00
2022-10-19T18:36:41.903Z,66.19
2022-10-19T18:40:19.169Z,66.10
2022-10-19T18:44:06.102Z,66.10
2022-10-19T18:47:45.022Z,66.12
2022-10-19T18:51:43.683Z,66.08
2022-10-19T18:55:00.937Z,66.12
2022-10-19T18:58:38.702Z,66.09
2022-10-19T19:02:22.540Z,66.27
2022-10-19T19:06:09.107Z,66.39
2022-10-19T19:09:48.072Z,66.43
2022-10-19T19:13:24.905Z,66.45
2022-10-19T19:17:04.319Z,66.46
2022-10-19T19:20:43.535Z,66.41
2022-10-19T19:24:32.063Z,66.58
2022-10-19T19:27:59.125Z,66.58
2022-10-19T19:31:39.862Z,66.61
2022-10-19T19:35:19.064Z,66.94
2022-10-19T19:38:57.348Z,66.96
2022-10-19T19:42:35.446Z,67.16
2022-10-19T19:46:16.065Z,66.98
2022-10-19T19:49:54.410Z,67.03
2022-10-19T19:53:31.785Z,67.28
2022-10-19T19:57:11.796Z,67.24
2022-10-19T20:00:48.817Z,67.23
2022-10-19T20:04:26.852Z,67.29
2022-10-19T20:08:23.303Z,67.37
2022-10-19T20:11:42.867Z,67.52
2022-10-19T20:15:20.357Z,67.54
2022-10-19T20:19:08.563Z,67.67
2022-10-19T20:22:47.754Z,67.53
2022-10-19T20:26:25.324Z,67.78
2022-10-19T20:30:02.501Z,67.81
2022-10-19T20:33:41.925Z,67.81
2022-10-19T20:37:19.734Z,67.87
2022-10-19T20:40:56.646Z,67.93
2022-10-19T20:44:35.109Z,68.09
2022-10-19T20:48:12.212Z,67.92
2022-10-19T20:51:51.033Z,67.96
2022-10-19T20:55:29.625Z,68.07
2022-10-19T20:59:13.769Z,68.36
2022-10-19T21:02:51.015Z,68.20
2022-10-19T21:06:49.924Z,68.24
2022-10-19T21:10:06.637Z,68.20
2022-10-19T21:13:47.155Z,68.52
2022-10-19T21:17:24.464Z,68.74
2022-10-19T21:21:01.835Z,68.57
2022-10-19T21:24:40.230Z,68.75
2022-10-19T21:28:17.438Z,68.90
2022-10-19T21:32:13.490Z,68.91
2022-10-19T21:35:36.858Z,69.07
2022-10-19T21:39:14.789Z,69.06
2022-10-19T21:42:51.990Z,69.20
2022-10-19T21:46:30.602Z,69.30
2022-10-19T21:50:10.503Z,69.20
2022-10-19T21:53:47.447Z,69.24
2022-10-19T21:57:25.310Z,69.36
2022-10-19T22:01:06.814Z,69.38
2022-10-19T22:04:46.102Z,69.58
2022-10-19T22:08:23.114Z,69.42
2022-10-19T22:12:01.401Z,69.43
2022-10-19T22:15:39.800Z,69.64
2022-10-19T22:19:16.947Z,69.54
2022-10-19T22:22:55.068Z,69.87
2022-10-19T22:26:42.000Z,69.68
2022-10-19T22:30:21.437Z,69.69
2022-10-19T22:34:00.641Z,69.87
2022-10-19T22:37:37.803Z,70.13
2022-10-19T22:41:15.602Z,69.77
2022-10-19T22:44:53.422Z,70.03
2022-10-19T22:48:50.417Z,70.15
2022-10-19T22:52:10.398Z,70.05
2022-10-19T22:55:47.956Z,70.34
2022-10-19T22:59:24.981Z,70.47
2022-10-19T23:03:03.500Z,70.28
2022-10-19T23:06:41.224Z,70.35
2022-10-19T23:10:19.378Z,70.29
2022-10-19T23:13:56.165Z,70.45
2022-10-19T23:17:34.551Z,70.26
2022-10-19T23:21:13.256Z,70.41
2022-10-19T23:24:54.677Z,70.53
2022-10-19T23:28:35.801Z,70.80
2022-10-19T23:32:14.116Z,70.82
2022-10-19T23:35:51.182Z,70.77
2022-10-19T23:39:30.803Z,70.39
2022-10-19T23:43:07.809Z,70.25
2022-10-19T23:46:46.062Z,70.51
2022-10-19T23:50:25.553Z,70.54
2022-10-19T23:54:03.013Z,70.98
2022-10-19T23:57:41.785Z,71.02
